sensor_id;sensor_type;location;lat;lon;timestamp;P1;durP1;ratioP1;P2;durP2;ratioP2
26303;SDS011;70693;48.680;8.890;2024-01-11T00:01:44;23.33;;;15.07;;
26303;SDS011;70693;48.680;8.890;2024-01-11T00:04:13;22.63;;;13.90;;
26303;SDS011;70693;48.680;8.890;2024-01-11T00:06:40;19.85;;;13.00;;
26303;SDS011;70693;48.680;8.890;2024-01-11T00:09:07;21.92;;;14.27;;
26303;SDS011;70693;48.680;8.890;2024-01-11T00:11:32;20.58;;;13.55;;
26303;SDS011;70693;48.680;8.890;2024-01-11T00:13:58;19.63;;;14.00;;
26303;SDS011;70693;48.680;8.890;2024-01-11T00:16:24;22.67;;;14.38;;
26303;SDS011;70693;48.680;8.890;2024-01-11T00:18:49;23.13;;;14.75;;
26303;SDS011;70693;48.680;8.890;2024-01-11T00:21:15;23.42;;;15.07;;
26303;SDS011;70693;48.680;8.890;2024-01-11T00:23:40;21.35;;;14.35;;
26303;SDS011;70693;48.680;8.890;2024-01-11T00:26:06;22.48;;;14.20;;
26303;SDS011;70693;48.680;8.890;2024-01-11T00:28:31;22.55;;;13.98;;
26303;SDS011;70693;48.680;8.890;2024-01-11T00:30:57;21.75;;;14.07;;
26303;SDS011;70693;48.680;8.890;2024-01-11T00:33:23;19.05;;;13.02;;
26303;SDS011;70693;48.680;8.890;2024-01-11T00:35:48;24.15;;;14.90;;
26303;SDS011;70693;48.680;8.890;2024-01-11T00:38:14;22.42;;;13.70;;
26303;SDS011;70693;48.680;8.890;2024-01-11T00:40:39;23.13;;;14.20;;
26303;SDS011;70693;48.680;8.890;2024-01-11T00:43:05;23.27;;;14.05;;
26303;SDS011;70693;48.680;8.890;2024-01-11T00:45:31;22.70;;;14.57;;
26303;SDS011;70693;48.680;8.890;2024-01-11T00:47:56;22.92;;;14.25;;
26303;SDS011;70693;48.680;8.890;2024-01-11T00:50:22;19.58;;;13.05;;
26303;SDS011;70693;48.680;8.890;2024-01-11T00:52:47;21.08;;;13.13;;
26303;SDS011;70693;48.680;8.890;2024-01-11T00:55:13;19.83;;;13.25;;
26303;SDS011;70693;48.680;8.890;2024-01-11T00:57:39;19.55;;;12.30;;
26303;SDS011;70693;48.680;8.890;2024-01-11T01:00:04;22.70;;;14.15;;
26303;SDS011;70693;48.680;8.890;2024-01-11T01:02:31;19.98;;;12.73;;
26303;SDS011;70693;48.680;8.890;2024-01-11T01:04:56;22.25;;;13.57;;
26303;SDS011;70693;48.680;8.890;2024-01-11T01:07:22;21.27;;;13.63;;
26303;SDS011;70693;48.680;8.890;2024-01-11T01:09:47;21.65;;;13.73;;
26303;SDS011;70693;48.680;8.890;2024-01-11T01:12:13;19.40;;;12.75;;
26303;SDS011;70693;48.680;8.890;2024-01-11T01:14:38;23.98;;;13.52;;
26303;SDS011;70693;48.680;8.890;2024-01-11T01:17:04;20.60;;;12.80;;
26303;SDS011;70693;48.680;8.890;2024-01-11T01:19:30;17.75;;;12.02;;
26303;SDS011;70693;48.680;8.890;2024-01-11T01:21:55;20.60;;;13.77;;
26303;SDS011;70693;48.680;8.890;2024-01-11T01:24:21;21.63;;;14.65;;
26303;SDS011;70693;48.680;8.890;2024-01-11T01:26:47;21.77;;;13.57;;
26303;SDS011;70693;48.680;8.890;2024-01-11T01:29:12;23.30;;;13.85;;
26303;SDS011;70693;48.680;8.890;2024-01-11T01:31:39;21.10;;;13.85;;
26303;SDS011;70693;48.680;8.890;2024-01-11T01:34:04;21.65;;;13.52;;
26303;SDS011;70693;48.680;8.890;2024-01-11T01:36:32;20.45;;;12.65;;
26303;SDS011;70693;48.680;8.890;2024-01-11T01:38:57;22.10;;;12.95;;
26303;SDS011;70693;48.680;8.890;2024-01-11T01:41:23;18.63;;;12.10;;
26303;SDS011;70693;48.680;8.890;2024-01-11T01:43:49;19.45;;;13.02;;
26303;SDS011;70693;48.680;8.890;2024-01-11T01:46:15;20.58;;;12.73;;
26303;SDS011;70693;48.680;8.890;2024-01-11T01:48:47;21.75;;;13.48;;
26303;SDS011;70693;48.680;8.890;2024-01-11T01:51:13;21.23;;;14.27;;
26303;SDS011;70693;48.680;8.890;2024-01-11T01:53:39;22.77;;;14.13;;
26303;SDS011;70693;48.680;8.890;2024-01-11T01:56:05;19.83;;;13.18;;
26303;SDS011;70693;48.680;8.890;2024-01-11T01:58:32;22.02;;;13.10;;
26303;SDS011;70693;48.680;8.890;2024-01-11T02:00:58;20.35;;;12.65;;
26303;SDS011;70693;48.680;8.890;2024-01-11T02:03:25;20.13;;;12.70;;
26303;SDS011;70693;48.680;8.890;2024-01-11T02:05:53;21.85;;;13.48;;
26303;SDS011;70693;48.680;8.890;2024-01-11T02:08:20;18.98;;;13.38;;
26303;SDS011;70693;48.680;8.890;2024-01-11T02:10:48;22.67;;;13.98;;
26303;SDS011;70693;48.680;8.890;2024-01-11T02:13:14;22.02;;;13.40;;
26303;SDS011;70693;48.680;8.890;2024-01-11T02:15:40;18.17;;;12.80;;
26303;SDS011;70693;48.680;8.890;2024-01-11T02:18:06;18.63;;;13.13;;
26303;SDS011;70693;48.680;8.890;2024-01-11T02:20:32;18.60;;;12.25;;
26303;SDS011;70693;48.680;8.890;2024-01-11T02:22:58;18.05;;;12.45;;
26303;SDS011;70693;48.680;8.890;2024-01-11T02:25:33;17.48;;;11.48;;
26303;SDS011;70693;48.680;8.890;2024-01-11T02:27:58;20.10;;;12.82;;
26303;SDS011;70693;48.680;8.890;2024-01-11T02:30:24;21.45;;;13.88;;
26303;SDS011;70693;48.680;8.890;2024-01-11T02:32:50;21.33;;;13.70;;
26303;SDS011;70693;48.680;8.890;2024-01-11T02:35:16;22.73;;;13.95;;
26303;SDS011;70693;48.680;8.890;2024-01-11T02:37:43;25.02;;;13.65;;
26303;SDS011;70693;48.680;8.890;2024-01-11T02:40:10;22.90;;;13.48;;
26303;SDS011;70693;48.680;8.890;2024-01-11T02:42:37;20.42;;;13.10;;
26303;SDS011;70693;48.680;8.890;2024-01-11T02:45:03;22.48;;;13.45;;
26303;SDS011;70693;48.680;8.890;2024-01-11T02:47:29;20.20;;;12.85;;
26303;SDS011;70693;48.680;8.890;2024-01-11T02:49:55;18.63;;;12.20;;
26303;SDS011;70693;48.680;8.890;2024-01-11T02:52:22;20.63;;;12.77;;
26303;SDS011;70693;48.680;8.890;2024-01-11T02:54:48;22.05;;;13.25;;
26303;SDS011;70693;48.680;8.890;2024-01-11T02:57:14;19.33;;;13.23;;
26303;SDS011;70693;48.680;8.890;2024-01-11T02:59:39;19.60;;;12.48;;
26303;SDS011;70693;48.680;8.890;2024-01-11T03:02:05;19.27;;;12.70;;
26303;SDS011;70693;48.680;8.890;2024-01-11T03:04:31;22.15;;;12.98;;
26303;SDS011;70693;48.680;8.890;2024-01-11T03:06:57;22.23;;;12.90;;
26303;SDS011;70693;48.680;8.890;2024-01-11T03:09:22;17.95;;;11.55;;
26303;SDS011;70693;48.680;8.890;2024-01-11T03:11:48;18.08;;;12.02;;
26303;SDS011;70693;48.680;8.890;2024-01-11T03:14:13;19.58;;;12.98;;
26303;SDS011;70693;48.680;8.890;2024-01-11T03:16:39;20.08;;;13.25;;
26303;SDS011;70693;48.680;8.890;2024-01-11T03:19:05;22.45;;;13.45;;
26303;SDS011;70693;48.680;8.890;2024-01-11T03:21:31;21.38;;;12.75;;
26303;SDS011;70693;48.680;8.890;2024-01-11T03:23:56;20.60;;;13.38;;
26303;SDS011;70693;48.680;8.890;2024-01-11T03:26:22;18.58;;;12.65;;
26303;SDS011;70693;48.680;8.890;2024-01-11T03:28:48;19.35;;;13.20;;
26303;SDS011;70693;48.680;8.890;2024-01-11T03:31:14;19.92;;;12.80;;
26303;SDS011;70693;48.680;8.890;2024-01-11T03:33:39;20.27;;;12.60;;
26303;SDS011;70693;48.680;8.890;2024-01-11T03:36:09;22.67;;;13.05;;
26303;SDS011;70693;48.680;8.890;2024-01-11T03:38:35;20.27;;;13.43;;
26303;SDS011;70693;48.680;8.890;2024-01-11T03:41:01;19.88;;;13.18;;
26303;SDS011;70693;48.680;8.890;2024-01-11T03:43:27;20.63;;;13.90;;
26303;SDS011;70693;48.680;8.890;2024-01-11T03:45:53;18.10;;;13.02;;
26303;SDS011;70693;48.680;8.890;2024-01-11T03:48:19;19.73;;;12.38;;
26303;SDS011;70693;48.680;8.890;2024-01-11T03:50:44;19.20;;;12.27;;
26303;SDS011;70693;48.680;8.890;2024-01-11T03:53:10;17.33;;;12.30;;
26303;SDS011;70693;48.680;8.890;2024-01-11T03:55:35;18.02;;;12.45;;
26303;SDS011;70693;48.680;8.890;2024-01-11T03:58:04;20.08;;;12.50;;
26303;SDS011;70693;48.680;8.890;2024-01-11T04:00:29;19.92;;;13.00;;
26303;SDS011;70693;48.680;8.890;2024-01-11T04:02:55;19.33;;;13.05;;
26303;SDS011;70693;48.680;8.890;2024-01-11T04:05:20;21.92;;;13.55;;
26303;SDS011;70693;48.680;8.890;2024-01-11T04:07:46;19.85;;;13.70;;
26303;SDS011;70693;48.680;8.890;2024-01-11T04:10:12;20.02;;;13.57;;
26303;SDS011;70693;48.680;8.890;2024-01-11T04:12:37;18.92;;;13.07;;
26303;SDS011;70693;48.680;8.890;2024-01-11T04:15:03;18.42;;;12.25;;
26303;SDS011;70693;48.680;8.890;2024-01-11T04:17:29;19.48;;;12.05;;
26303;SDS011;70693;48.680;8.890;2024-01-11T04:19:54;18.75;;;12.80;;
26303;SDS011;70693;48.680;8.890;2024-01-11T04:22:20;20.00;;;13.45;;
26303;SDS011;70693;48.680;8.890;2024-01-11T04:24:46;18.35;;;12.75;;
26303;SDS011;70693;48.680;8.890;2024-01-11T04:27:11;19.65;;;13.20;;
26303;SDS011;70693;48.680;8.890;2024-01-11T04:29:37;21.52;;;13.23;;
26303;SDS011;70693;48.680;8.890;2024-01-11T04:32:05;19.92;;;13.18;;
26303;SDS011;70693;48.680;8.890;2024-01-11T04:34:30;20.63;;;13.20;;
26303;SDS011;70693;48.680;8.890;2024-01-11T04:36:56;18.27;;;12.10;;
26303;SDS011;70693;48.680;8.890;2024-01-11T04:39:21;21.25;;;12.35;;
26303;SDS011;70693;48.680;8.890;2024-01-11T04:41:47;20.65;;;13.07;;
26303;SDS011;70693;48.680;8.890;2024-01-11T04:44:13;21.73;;;13.52;;
26303;SDS011;70693;48.680;8.890;2024-01-11T04:46:38;21.85;;;13.40;;
26303;SDS011;70693;48.680;8.890;2024-01-11T04:49:04;21.35;;;13.50;;
26303;SDS011;70693;48.680;8.890;2024-01-11T04:51:29;20.75;;;13.48;;
26303;SDS011;70693;48.680;8.890;2024-01-11T04:53:55;20.40;;;13.23;;
26303;SDS011;70693;48.680;8.890;2024-01-11T04:56:21;19.92;;;12.95;;
26303;SDS011;70693;48.680;8.890;2024-01-11T04:58:47;17.77;;;12.10;;
26303;SDS011;70693;48.680;8.890;2024-01-11T05:01:16;19.67;;;12.77;;
26303;SDS011;70693;48.680;8.890;2024-01-11T05:03:43;21.10;;;12.43;;
26303;SDS011;70693;48.680;8.890;2024-01-11T05:06:19;21.70;;;13.45;;
26303;SDS011;70693;48.680;8.890;2024-01-11T05:08:46;20.95;;;13.68;;
26303;SDS011;70693;48.680;8.890;2024-01-11T05:11:16;20.00;;;13.52;;
26303;SDS011;70693;48.680;8.890;2024-01-11T05:13:42;20.50;;;13.20;;
26303;SDS011;70693;48.680;8.890;2024-01-11T05:16:16;20.83;;;13.05;;
26303;SDS011;70693;48.680;8.890;2024-01-11T05:19:00;20.33;;;12.27;;
26303;SDS011;70693;48.680;8.890;2024-01-11T05:21:26;19.92;;;12.50;;
26303;SDS011;70693;48.680;8.890;2024-01-11T05:23:52;17.45;;;11.57;;
26303;SDS011;70693;48.680;8.890;2024-01-11T05:26:18;20.42;;;13.40;;
26303;SDS011;70693;48.680;8.890;2024-01-11T05:28:44;20.58;;;14.05;;
26303;SDS011;70693;48.680;8.890;2024-01-11T05:31:12;18.70;;;13.23;;
26303;SDS011;70693;48.680;8.890;2024-01-11T05:33:42;21.40;;;14.18;;
26303;SDS011;70693;48.680;8.890;2024-01-11T05:36:08;19.90;;;14.05;;
26303;SDS011;70693;48.680;8.890;2024-01-11T05:38:34;19.42;;;13.15;;
26303;SDS011;70693;48.680;8.890;2024-01-11T05:41:00;18.13;;;12.90;;
26303;SDS011;70693;48.680;8.890;2024-01-11T05:43:26;17.52;;;12.10;;
26303;SDS011;70693;48.680;8.890;2024-01-11T05:45:52;20.20;;;13.10;;
26303;SDS011;70693;48.680;8.890;2024-01-11T05:48:18;17.52;;;12.38;;
26303;SDS011;70693;48.680;8.890;2024-01-11T05:50:44;18.95;;;12.77;;
26303;SDS011;70693;48.680;8.890;2024-01-11T05:53:10;22.90;;;13.32;;
26303;SDS011;70693;48.680;8.890;2024-01-11T05:55:37;19.52;;;13.80;;
26303;SDS011;70693;48.680;8.890;2024-01-11T05:58:03;20.58;;;13.20;;
26303;SDS011;70693;48.680;8.890;2024-01-11T06:00:29;20.02;;;13.23;;
26303;SDS011;70693;48.680;8.890;2024-01-11T06:02:54;19.75;;;12.50;;
26303;SDS011;70693;48.680;8.890;2024-01-11T06:05:20;20.88;;;13.18;;
26303;SDS011;70693;48.680;8.890;2024-01-11T06:07:46;20.05;;;13.13;;
26303;SDS011;70693;48.680;8.890;2024-01-11T06:10:12;19.33;;;12.98;;
26303;SDS011;70693;48.680;8.890;2024-01-11T06:12:39;21.23;;;13.63;;
26303;SDS011;70693;48.680;8.890;2024-01-11T06:15:06;21.95;;;14.07;;
26303;SDS011;70693;48.680;8.890;2024-01-11T06:17:32;21.83;;;13.75;;
26303;SDS011;70693;48.680;8.890;2024-01-11T06:19:58;18.95;;;13.38;;
26303;SDS011;70693;48.680;8.890;2024-01-11T06:22:23;18.40;;;13.00;;
26303;SDS011;70693;48.680;8.890;2024-01-11T06:24:49;21.23;;;13.77;;
26303;SDS011;70693;48.680;8.890;2024-01-11T06:27:15;18.83;;;12.77;;
26303;SDS011;70693;48.680;8.890;2024-01-11T06:29:40;18.50;;;12.43;;
26303;SDS011;70693;48.680;8.890;2024-01-11T06:32:06;19.98;;;13.20;;
26303;SDS011;70693;48.680;8.890;2024-01-11T06:34:35;19.77;;;13.57;;
26303;SDS011;70693;48.680;8.890;2024-01-11T06:37:01;20.48;;;13.30;;
26303;SDS011;70693;48.680;8.890;2024-01-11T06:39:28;23.08;;;13.75;;
26303;SDS011;70693;48.680;8.890;2024-01-11T06:41:54;19.70;;;13.27;;
26303;SDS011;70693;48.680;8.890;2024-01-11T06:44:20;22.20;;;13.93;;
26303;SDS011;70693;48.680;8.890;2024-01-11T06:46:46;19.80;;;13.05;;
26303;SDS011;70693;48.680;8.890;2024-01-11T06:49:11;19.48;;;12.77;;
26303;SDS011;70693;48.680;8.890;2024-01-11T06:51:37;19.55;;;12.70;;
26303;SDS011;70693;48.680;8.890;2024-01-11T06:54:04;21.08;;;14.02;;
26303;SDS011;70693;48.680;8.890;2024-01-11T06:56:29;21.38;;;13.80;;
26303;SDS011;70693;48.680;8.890;2024-01-11T06:58:56;23.20;;;14.70;;
26303;SDS011;70693;48.680;8.890;2024-01-11T07:01:22;21.90;;;13.70;;
26303;SDS011;70693;48.680;8.890;2024-01-11T07:03:48;20.88;;;13.63;;
26303;SDS011;70693;48.680;8.890;2024-01-11T07:06:14;21.30;;;13.00;;
26303;SDS011;70693;48.680;8.890;2024-01-11T07:08:40;19.70;;;13.10;;
26303;SDS011;70693;48.680;8.890;2024-01-11T07:11:06;22.00;;;13.32;;
26303;SDS011;70693;48.680;8.890;2024-01-11T07:13:32;19.13;;;13.15;;
26303;SDS011;70693;48.680;8.890;2024-01-11T07:15:58;21.33;;;13.80;;
26303;SDS011;70693;48.680;8.890;2024-01-11T07:18:24;21.52;;;12.90;;
26303;SDS011;70693;48.680;8.890;2024-01-11T07:20:51;22.23;;;13.05;;
26303;SDS011;70693;48.680;8.890;2024-01-11T07:23:21;23.20;;;14.25;;
26303;SDS011;70693;48.680;8.890;2024-01-11T07:25:47;22.08;;;13.80;;
26303;SDS011;70693;48.680;8.890;2024-01-11T07:28:12;20.30;;;13.90;;
26303;SDS011;70693;48.680;8.890;2024-01-11T07:30:38;20.52;;;12.93;;
26303;SDS011;70693;48.680;8.890;2024-01-11T07:33:04;22.15;;;13.82;;
26303;SDS011;70693;48.680;8.890;2024-01-11T07:35:30;19.70;;;12.45;;
26303;SDS011;70693;48.680;8.890;2024-01-11T07:37:56;22.58;;;13.85;;
26303;SDS011;70693;48.680;8.890;2024-01-11T07:40:23;21.35;;;14.25;;
26303;SDS011;70693;48.680;8.890;2024-01-11T07:42:49;21.23;;;13.70;;
26303;SDS011;70693;48.680;8.890;2024-01-11T07:45:14;22.50;;;14.75;;
26303;SDS011;70693;48.680;8.890;2024-01-11T07:47:40;21.05;;;14.10;;
26303;SDS011;70693;48.680;8.890;2024-01-11T07:50:06;21.52;;;13.43;;
26303;SDS011;70693;48.680;8.890;2024-01-11T07:52:34;21.45;;;14.05;;
26303;SDS011;70693;48.680;8.890;2024-01-11T07:55:01;21.13;;;13.93;;
26303;SDS011;70693;48.680;8.890;2024-01-11T07:57:32;19.55;;;13.32;;
26303;SDS011;70693;48.680;8.890;2024-01-11T08:00:02;21.20;;;14.15;;
26303;SDS011;70693;48.680;8.890;2024-01-11T08:02:29;23.00;;;14.50;;
26303;SDS011;70693;48.680;8.890;2024-01-11T08:04:55;22.50;;;14.75;;
26303;SDS011;70693;48.680;8.890;2024-01-11T08:07:21;23.00;;;14.20;;
26303;SDS011;70693;48.680;8.890;2024-01-11T08:09:47;22.75;;;14.70;;
26303;SDS011;70693;48.680;8.890;2024-01-11T08:12:12;20.80;;;13.35;;
26303;SDS011;70693;48.680;8.890;2024-01-11T08:14:41;22.23;;;14.20;;
26303;SDS011;70693;48.680;8.890;2024-01-11T08:17:07;18.83;;;13.05;;
26303;SDS011;70693;48.680;8.890;2024-01-11T08:19:33;19.73;;;12.93;;
26303;SDS011;70693;48.680;8.890;2024-01-11T08:21:59;19.23;;;13.07;;
26303;SDS011;70693;48.680;8.890;2024-01-11T08:24:25;20.52;;;14.20;;
26303;SDS011;70693;48.680;8.890;2024-01-11T08:26:51;24.83;;;16.20;;
26303;SDS011;70693;48.680;8.890;2024-01-11T08:29:17;22.70;;;15.00;;
26303;SDS011;70693;48.680;8.890;2024-01-11T08:31:45;21.77;;;14.68;;
26303;SDS011;70693;48.680;8.890;2024-01-11T08:34:10;21.88;;;14.35;;
26303;SDS011;70693;48.680;8.890;2024-01-11T08:36:36;22.02;;;14.52;;
26303;SDS011;70693;48.680;8.890;2024-01-11T08:39:04;23.50;;;14.65;;
26303;SDS011;70693;48.680;8.890;2024-01-11T08:41:36;21.42;;;13.80;;
26303;SDS011;70693;48.680;8.890;2024-01-11T08:44:02;20.27;;;13.30;;
26303;SDS011;70693;48.680;8.890;2024-01-11T08:46:30;23.83;;;15.95;;
26303;SDS011;70693;48.680;8.890;2024-01-11T08:48:58;21.88;;;15.00;;
26303;SDS011;70693;48.680;8.890;2024-01-11T08:51:24;22.50;;;15.02;;
26303;SDS011;70693;48.680;8.890;2024-01-11T08:53:50;22.75;;;14.57;;
26303;SDS011;70693;48.680;8.890;2024-01-11T08:56:17;21.98;;;14.23;;
26303;SDS011;70693;48.680;8.890;2024-01-11T08:58:43;21.02;;;13.88;;
26303;SDS011;70693;48.680;8.890;2024-01-11T09:01:09;22.00;;;13.77;;
26303;SDS011;70693;48.680;8.890;2024-01-11T09:03:35;21.17;;;13.63;;
26303;SDS011;70693;48.680;8.890;2024-01-11T09:06:01;20.17;;;13.20;;
26303;SDS011;70693;48.680;8.890;2024-01-11T09:08:28;21.25;;;13.40;;
26303;SDS011;70693;48.680;8.890;2024-01-11T09:10:54;22.25;;;13.93;;
26303;SDS011;70693;48.680;8.890;2024-01-11T09:13:20;19.15;;;12.88;;
26303;SDS011;70693;48.680;8.890;2024-01-11T09:15:46;22.02;;;13.75;;
26303;SDS011;70693;48.680;8.890;2024-01-11T09:18:12;20.58;;;12.88;;
26303;SDS011;70693;48.680;8.890;2024-01-11T09:20:37;20.35;;;13.55;;
26303;SDS011;70693;48.680;8.890;2024-01-11T09:23:03;18.08;;;12.63;;
26303;SDS011;70693;48.680;8.890;2024-01-11T09:25:31;20.55;;;13.73;;
26303;SDS011;70693;48.680;8.890;2024-01-11T09:27:57;20.75;;;13.23;;
26303;SDS011;70693;48.680;8.890;2024-01-11T09:30:23;21.63;;;13.60;;
26303;SDS011;70693;48.680;8.890;2024-01-11T09:32:49;17.60;;;12.63;;
26303;SDS011;70693;48.680;8.890;2024-01-11T09:35:14;19.70;;;13.05;;
26303;SDS011;70693;48.680;8.890;2024-01-11T09:37:40;19.88;;;12.85;;
26303;SDS011;70693;48.680;8.890;2024-01-11T09:40:06;18.80;;;12.68;;
26303;SDS011;70693;48.680;8.890;2024-01-11T09:42:36;17.90;;;12.38;;
26303;SDS011;70693;48.680;8.890;2024-01-11T09:45:02;20.17;;;12.75;;
26303;SDS011;70693;48.680;8.890;2024-01-11T09:47:33;19.73;;;12.93;;
26303;SDS011;70693;48.680;8.890;2024-01-11T09:50:01;17.45;;;11.90;;
26303;SDS011;70693;48.680;8.890;2024-01-11T09:52:28;18.15;;;11.80;;
26303;SDS011;70693;48.680;8.890;2024-01-11T09:54:56;20.67;;;12.85;;
26303;SDS011;70693;48.680;8.890;2024-01-11T09:57:29;20.30;;;12.43;;
26303;SDS011;70693;48.680;8.890;2024-01-11T09:59:56;19.42;;;12.75;;
26303;SDS011;70693;48.680;8.890;2024-01-11T10:02:23;16.98;;;12.15;;
26303;SDS011;70693;48.680;8.890;2024-01-11T10:04:51;15.98;;;11.20;;
26303;SDS011;70693;48.680;8.890;2024-01-11T10:07:18;18.15;;;11.73;;
26303;SDS011;70693;48.680;8.890;2024-01-11T10:09:46;16.35;;;11.50;;
26303;SDS011;70693;48.680;8.890;2024-01-11T10:12:12;18.33;;;11.82;;
26303;SDS011;70693;48.680;8.890;2024-01-11T10:14:38;17.45;;;11.38;;
26303;SDS011;70693;48.680;8.890;2024-01-11T10:17:04;19.13;;;12.00;;
26303;SDS011;70693;48.680;8.890;2024-01-11T10:19:31;16.00;;;11.85;;
26303;SDS011;70693;48.680;8.890;2024-01-11T10:21:56;17.30;;;11.80;;
26303;SDS011;70693;48.680;8.890;2024-01-11T10:24:23;16.95;;;11.30;;
26303;SDS011;70693;48.680;8.890;2024-01-11T10:26:51;16.63;;;11.45;;
26303;SDS011;70693;48.680;8.890;2024-01-11T10:29:28;18.35;;;11.52;;
26303;SDS011;70693;48.680;8.890;2024-01-11T10:31:55;15.32;;;11.15;;
26303;SDS011;70693;48.680;8.890;2024-01-11T10:34:23;17.83;;;12.02;;
26303;SDS011;70693;48.680;8.890;2024-01-11T10:36:49;16.08;;;10.90;;
26303;SDS011;70693;48.680;8.890;2024-01-11T10:39:18;15.32;;;10.85;;
26303;SDS011;70693;48.680;8.890;2024-01-11T10:41:51;17.45;;;11.40;;
26303;SDS011;70693;48.680;8.890;2024-01-11T10:44:22;16.80;;;11.35;;
26303;SDS011;70693;48.680;8.890;2024-01-11T10:46:50;17.02;;;11.25;;
26303;SDS011;70693;48.680;8.890;2024-01-11T10:49:20;15.93;;;11.35;;
26303;SDS011;70693;48.680;8.890;2024-01-11T10:51:56;15.18;;;10.75;;
26303;SDS011;70693;48.680;8.890;2024-01-11T10:54:25;15.45;;;11.02;;
26303;SDS011;70693;48.680;8.890;2024-01-11T10:56:53;16.00;;;10.50;;
26303;SDS011;70693;48.680;8.890;2024-01-11T10:59:19;16.17;;;10.85;;
26303;SDS011;70693;48.680;8.890;2024-01-11T11:01:50;15.98;;;10.98;;
26303;SDS011;70693;48.680;8.890;2024-01-11T11:04:19;15.02;;;11.40;;
26303;SDS011;70693;48.680;8.890;2024-01-11T11:06:47;16.70;;;11.38;;
26303;SDS011;70693;48.680;8.890;2024-01-11T11:09:15;15.43;;;10.43;;
26303;SDS011;70693;48.680;8.890;2024-01-11T11:11:42;14.07;;;10.52;;
26303;SDS011;70693;48.680;8.890;2024-01-11T11:14:09;15.23;;;10.68;;
26303;SDS011;70693;48.680;8.890;2024-01-11T11:16:38;13.90;;;10.07;;
26303;SDS011;70693;48.680;8.890;2024-01-11T11:19:04;16.25;;;10.68;;
26303;SDS011;70693;48.680;8.890;2024-01-11T11:21:32;15.65;;;10.52;;
26303;SDS011;70693;48.680;8.890;2024-01-11T11:23:57;15.95;;;10.88;;
26303;SDS011;70693;48.680;8.890;2024-01-11T11:26:25;17.27;;;11.02;;
26303;SDS011;70693;48.680;8.890;2024-01-11T11:28:51;15.50;;;10.15;;
26303;SDS011;70693;48.680;8.890;2024-01-11T11:31:36;15.25;;;10.05;;
26303;SDS011;70693;48.680;8.890;2024-01-11T11:34:03;15.32;;;10.45;;
26303;SDS011;70693;48.680;8.890;2024-01-11T11:36:29;18.60;;;10.73;;
26303;SDS011;70693;48.680;8.890;2024-01-11T11:38:56;15.68;;;10.93;;
26303;SDS011;70693;48.680;8.890;2024-01-11T11:41:25;16.42;;;10.93;;
26303;SDS011;70693;48.680;8.890;2024-01-11T11:43:51;15.88;;;10.80;;
26303;SDS011;70693;48.680;8.890;2024-01-11T11:46:18;14.55;;;10.52;;
26303;SDS011;70693;48.680;8.890;2024-01-11T11:51:12;14.63;;;10.18;;
26303;SDS011;70693;48.680;8.890;2024-01-11T11:53:43;14.93;;;10.02;;
26303;SDS011;70693;48.680;8.890;2024-01-11T11:56:10;17.67;;;10.93;;
26303;SDS011;70693;48.680;8.890;2024-01-11T11:58:36;15.30;;;10.48;;
26303;SDS011;70693;48.680;8.890;2024-01-11T12:01:02;16.38;;;11.00;;
26303;SDS011;70693;48.680;8.890;2024-01-11T12:03:30;15.82;;;10.77;;
26303;SDS011;70693;48.680;8.890;2024-01-11T12:06:03;15.35;;;11.00;;
26303;SDS011;70693;48.680;8.890;2024-01-11T12:08:35;16.20;;;10.57;;
26303;SDS011;70693;48.680;8.890;2024-01-11T12:11:02;16.30;;;11.32;;
26303;SDS011;70693;48.680;8.890;2024-01-11T12:13:28;15.35;;;10.52;;
26303;SDS011;70693;48.680;8.890;2024-01-11T12:15:56;17.55;;;10.93;;
26303;SDS011;70693;48.680;8.890;2024-01-11T12:18:21;15.32;;;10.57;;
26303;SDS011;70693;48.680;8.890;2024-01-11T12:20:47;15.52;;;10.82;;
26303;SDS011;70693;48.680;8.890;2024-01-11T12:23:13;16.52;;;11.13;;
26303;SDS011;70693;48.680;8.890;2024-01-11T12:25:40;14.38;;;10.48;;
26303;SDS011;70693;48.680;8.890;2024-01-11T12:28:06;16.10;;;11.43;;
26303;SDS011;70693;48.680;8.890;2024-01-11T12:30:32;14.73;;;10.90;;
26303;SDS011;70693;48.680;8.890;2024-01-11T12:32:58;16.08;;;10.95;;
26303;SDS011;70693;48.680;8.890;2024-01-11T12:35:26;15.90;;;10.95;;
26303;SDS011;70693;48.680;8.890;2024-01-11T12:37:55;16.50;;;11.15;;
26303;SDS011;70693;48.680;8.890;2024-01-11T12:40:25;15.90;;;10.95;;
26303;SDS011;70693;48.680;8.890;2024-01-11T12:42:53;15.82;;;11.45;;
26303;SDS011;70693;48.680;8.890;2024-01-11T12:45:19;15.00;;;10.23;;
26303;SDS011;70693;48.680;8.890;2024-01-11T12:47:45;15.15;;;10.40;;
26303;SDS011;70693;48.680;8.890;2024-01-11T12:50:11;16.50;;;11.32;;
26303;SDS011;70693;48.680;8.890;2024-01-11T12:52:37;16.02;;;11.45;;
26303;SDS011;70693;48.680;8.890;2024-01-11T12:55:04;14.93;;;10.93;;
26303;SDS011;70693;48.680;8.890;2024-01-11T12:57:33;14.80;;;11.30;;
26303;SDS011;70693;48.680;8.890;2024-01-11T13:00:11;17.98;;;11.48;;
26303;SDS011;70693;48.680;8.890;2024-01-11T13:02:38;15.90;;;10.80;;
26303;SDS011;70693;48.680;8.890;2024-01-11T13:05:04;14.93;;;10.63;;
26303;SDS011;70693;48.680;8.890;2024-01-11T13:07:30;15.95;;;10.90;;
26303;SDS011;70693;48.680;8.890;2024-01-11T13:09:57;17.85;;;12.00;;
26303;SDS011;70693;48.680;8.890;2024-01-11T13:12:22;18.23;;;11.30;;
26303;SDS011;70693;48.680;8.890;2024-01-11T13:14:48;15.30;;;11.13;;
26303;SDS011;70693;48.680;8.890;2024-01-11T13:17:15;16.13;;;11.30;;
26303;SDS011;70693;48.680;8.890;2024-01-11T13:19:41;16.23;;;10.63;;
26303;SDS011;70693;48.680;8.890;2024-01-11T13:22:07;16.27;;;10.52;;
26303;SDS011;70693;48.680;8.890;2024-01-11T13:24:32;15.68;;;10.77;;
26303;SDS011;70693;48.680;8.890;2024-01-11T13:26:58;15.52;;;10.73;;
26303;SDS011;70693;48.680;8.890;2024-01-11T13:29:23;14.35;;;10.73;;
26303;SDS011;70693;48.680;8.890;2024-01-11T13:31:49;15.48;;;10.55;;
26303;SDS011;70693;48.680;8.890;2024-01-11T13:34:15;14.07;;;10.43;;
26303;SDS011;70693;48.680;8.890;2024-01-11T13:36:40;14.82;;;10.20;;
26303;SDS011;70693;48.680;8.890;2024-01-11T13:39:06;15.35;;;10.63;;
26303;SDS011;70693;48.680;8.890;2024-01-11T13:41:33;17.13;;;10.98;;
26303;SDS011;70693;48.680;8.890;2024-01-11T13:43:59;14.93;;;10.30;;
26303;SDS011;70693;48.680;8.890;2024-01-11T13:46:25;14.32;;;10.15;;
26303;SDS011;70693;48.680;8.890;2024-01-11T13:48:50;17.08;;;10.95;;
26303;SDS011;70693;48.680;8.890;2024-01-11T13:51:16;14.85;;;9.80;;
26303;SDS011;70693;48.680;8.890;2024-01-11T13:53:42;15.85;;;10.65;;
26303;SDS011;70693;48.680;8.890;2024-01-11T13:56:09;15.27;;;10.25;;
26303;SDS011;70693;48.680;8.890;2024-01-11T13:58:34;14.02;;;10.15;;
26303;SDS011;70693;48.680;8.890;2024-01-11T14:01:00;16.85;;;10.43;;
26303;SDS011;70693;48.680;8.890;2024-01-11T14:03:26;16.13;;;10.30;;
26303;SDS011;70693;48.680;8.890;2024-01-11T14:05:52;15.00;;;9.48;;
26303;SDS011;70693;48.680;8.890;2024-01-11T14:08:18;16.55;;;10.40;;
26303;SDS011;70693;48.680;8.890;2024-01-11T14:10:44;15.70;;;10.00;;
26303;SDS011;70693;48.680;8.890;2024-01-11T14:13:10;14.60;;;9.93;;
26303;SDS011;70693;48.680;8.890;2024-01-11T14:15:36;16.45;;;11.10;;
26303;SDS011;70693;48.680;8.890;2024-01-11T14:18:01;14.10;;;10.45;;
26303;SDS011;70693;48.680;8.890;2024-01-11T14:20:28;16.10;;;10.10;;